Time;durP1;ratioP1;P1;durP2;ratioP2;P2;SDS_P1;SDS_P2;PMS_P1;PMS_P2;Temp;Humidity;BMP_temperature;BMP_pressure;BME280_temperature;BME280_humidity;BME280_pressure;Samples;Min_cycle;Max_cycle;Signal;HPM_P1;HPM_P2
2023/07/21 00:00:28;;;;;;;4.70;3.17;;;13.60;99.90;;;;;;7369791;19;20513;-65
2023/07/21 00:02:55;;;;;;;5.60;3.40;;;13.50;99.90;;;;;;7370213;19;20352;-58
2023/07/21 00:05:24;;;;;;;4.80;3.35;;;13.50;99.90;;;;;;7368662;19;20109;-59
2023/07/21 00:07:51;;;;;;;4.35;3.47;;;13.50;99.90;;;;;;7369524;19;20486;-61
2023/07/21 00:10:17;;;;;;;6.03;3.60;;;13.50;99.90;;;;;;7373523;19;20018;-58
2023/07/21 00:12:46;;;;;;;5.20;3.53;;;13.40;99.90;;;;;;7371559;19;20007;-58
2023/07/21 00:15:17;;;;;;;5.68;3.70;;;13.30;99.90;;;;;;7371366;19;20067;-58
2023/07/21 00:17:48;;;;;;;6.73;4.40;;;13.30;99.90;;;;;;7375546;19;20114;-58
2023/07/21 00:20:21;;;;;;;5.88;4.18;;;13.30;99.90;;;;;;7371605;19;20274;-58
2023/07/21 00:22:48;;;;;;;7.35;5.05;;;13.40;99.90;;;;;;7370629;19;20101;-59
2023/07/21 00:25:16;;;;;;;6.38;4.22;;;13.30;99.90;;;;;;7373816;19;20056;-58
2023/07/21 00:27:43;;;;;;;6.75;6.05;;;13.40;99.90;;;;;;7371047;19;20521;-58
2023/07/21 00:30:10;;;;;;;7.93;5.25;;;13.40;99.90;;;;;;7371192;19;20018;-64
2023/07/21 00:32:38;;;;;;;7.78;5.15;;;13.40;99.90;;;;;;7372002;19;20022;-64
2023/07/21 00:35:06;;;;;;;6.65;4.97;;;13.40;99.90;;;;;;7371398;19;20078;-58
2023/07/21 00:37:33;;;;;;;6.43;4.78;;;13.50;99.90;;;;;;7370516;19;20018;-58
2023/07/21 00:40:03;;;;;;;8.32;5.32;;;13.50;99.90;;;;;;7365086;19;20370;-65
2023/07/21 00:42:30;;;;;;;8.52;5.72;;;13.50;99.90;;;;;;7373693;19;20018;-65
2023/07/21 00:44:57;;;;;;;7.85;5.30;;;13.50;99.90;;;;;;7367530;19;20049;-64
2023/07/21 00:47:24;;;;;;;7.93;5.32;;;13.60;99.90;;;;;;7370089;19;20018;-59
2023/07/21 00:49:51;;;;;;;7.25;6.35;;;13.60;99.90;;;;;;7370297;19;20106;-65
2023/07/21 00:52:18;;;;;;;6.57;5.30;;;13.70;99.90;;;;;;7370334;19;20021;-59
2023/07/21 00:54:45;;;;;;;6.32;5.43;;;13.60;99.90;;;;;;7369478;19;20112;-62
2023/07/21 00:57:12;;;;;;;9.57;5.88;;;13.60;99.90;;;;;;7371945;19;20019;-61
2023/07/21 00:59:41;;;;;;;6.40;5.32;;;13.50;99.90;;;;;;7368682;19;20372;-59
2023/07/21 01:02:08;;;;;;;6.70;5.72;;;13.50;99.90;;;;;;7369785;19;20041;-59
2023/07/21 01:04:35;;;;;;;6.10;5.35;;;13.50;99.90;;;;;;7368621;19;20014;-59
2023/07/21 01:07:05;;;;;;;6.32;5.40;;;13.50;99.90;;;;;;7371873;19;20197;-59
2023/07/21 01:09:37;;;;;;;6.38;5.03;;;13.40;99.90;;;;;;7367408;19;20022;-59
2023/07/21 01:12:06;;;;;;;7.05;5.18;;;13.50;99.90;;;;;;7359559;19;20378;-59
2023/07/21 01:14:35;;;;;;;6.45;5.55;;;13.40;99.90;;;;;;7363401;19;20022;-59
2023/07/21 01:17:02;;;;;;;6.43;5.38;;;13.40;99.90;;;;;;7364792;19;20513;-58
2023/07/21 01:19:30;;;;;;;8.88;6.13;;;13.40;99.90;;;;;;7367976;19;20357;-58
2023/07/21 01:22:24;;;;;;;8.13;5.97;;;13.40;99.90;;;;;;7368343;19;20022;-58
2023/07/21 01:24:50;;;;;;;9.65;5.57;;;13.40;99.90;;;;;;7367895;19;20023;-59
2023/07/21 01:27:24;;;;;;;6.93;6.07;;;13.30;99.90;;;;;;7365877;19;20025;-59
2023/07/21 01:29:52;;;;;;;8.13;6.00;;;13.30;99.90;;;;;;7369871;19;20015;-59
2023/07/21 01:32:21;;;;;;;7.18;5.88;;;13.30;99.90;;;;;;7368188;19;20619;-59
2023/07/21 01:34:49;;;;;;;8.70;5.85;;;13.30;99.90;;;;;;7369040;19;20456;-59
2023/07/21 01:37:17;;;;;;;9.45;6.15;;;13.30;99.90;;;;;;7367241;19;20022;-58
2023/07/21 01:39:44;;;;;;;7.68;5.82;;;13.30;99.90;;;;;;7372088;19;20038;-59
2023/07/21 01:42:11;;;;;;;8.95;6.32;;;13.30;99.90;;;;;;7370121;19;20019;-59
2023/07/21 01:44:39;;;;;;;6.63;5.55;;;13.30;99.90;;;;;;7359119;19;20347;-58
2023/07/21 01:47:06;;;;;;;7.68;6.70;;;13.30;99.90;;;;;;7357389;19;20029;-59
2023/07/21 01:49:32;;;;;;;8.25;5.78;;;13.30;99.90;;;;;;7368653;19;20398;-58
2023/07/21 01:51:58;;;;;;;8.07;5.82;;;13.20;99.90;;;;;;7375017;19;20021;-59
2023/07/21 01:54:45;;;;;;;6.40;5.80;;;13.30;99.90;;;;;;7375178;19;20467;-58
2023/07/21 01:57:24;;;;;;;10.48;6.95;;;13.30;99.90;;;;;;7372976;19;20030;-59
2023/07/21 01:59:51;;;;;;;8.65;5.95;;;13.20;99.90;;;;;;7375550;19;20014;-58
2023/07/21 02:02:18;;;;;;;6.15;5.13;;;13.30;99.90;;;;;;7369695;19;20026;-59
2023/07/21 02:04:52;;;;;;;7.30;5.65;;;13.30;99.90;;;;;;7375422;19;20106;-65
2023/07/21 02:07:22;;;;;;;7.22;6.03;;;13.30;99.90;;;;;;7374827;19;20013;-65
2023/07/21 02:09:52;;;;;;;7.30;5.45;;;13.30;99.90;;;;;;7374147;19;20041;-65
2023/07/21 02:12:20;;;;;;;8.60;6.05;;;13.30;99.90;;;;;;7374037;19;20022;-65
2023/07/21 02:15:00;;;;;;;8.55;5.95;;;13.30;99.90;;;;;;7373691;19;20038;-65
2023/07/21 02:17:27;;;;;;;8.45;5.55;;;13.20;99.90;;;;;;7372458;19;20026;-66
2023/07/21 02:19:53;;;;;;;8.40;6.32;;;13.20;99.90;;;;;;7373011;19;20576;-66
2023/07/21 02:22:20;;;;;;;6.85;5.90;;;13.20;99.90;;;;;;7365989;19;20057;-66
2023/07/21 02:24:46;;;;;;;8.73;5.85;;;13.20;99.90;;;;;;7373272;19;20121;-66
2023/07/21 02:27:13;;;;;;;8.38;6.40;;;13.10;99.90;;;;;;7362400;19;20018;-66
2023/07/21 02:29:39;;;;;;;8.82;6.10;;;13.10;99.90;;;;;;7372275;19;20579;-66
2023/07/21 02:32:05;;;;;;;7.38;6.15;;;13.00;99.90;;;;;;7367463;19;20025;-59
2023/07/21 02:34:32;;;;;;;10.35;5.93;;;13.00;99.90;;;;;;7365558;19;20651;-59
2023/07/21 02:36:58;;;;;;;6.72;5.70;;;13.00;99.90;;;;;;7372545;19;20018;-58
2023/07/21 02:39:25;;;;;;;6.88;5.70;;;13.00;99.90;;;;;;7372161;19;20125;-59
2023/07/21 02:41:52;;;;;;;7.18;5.53;;;12.90;99.90;;;;;;7369906;19;20501;-59
2023/07/21 02:44:18;;;;;;;7.60;5.85;;;12.90;99.90;;;;;;7370257;19;20611;-58
2023/07/21 02:46:45;;;;;;;8.20;5.30;;;12.90;99.90;;;;;;7369203;19;20505;-59
2023/07/21 02:49:11;;;;;;;7.40;5.78;;;12.90;99.90;;;;;;7366372;19;20026;-59
2023/07/21 02:51:37;;;;;;;6.97;5.35;;;12.80;99.90;;;;;;7370923;19;20025;-68
2023/07/21 02:54:03;;;;;;;8.25;6.15;;;12.80;99.90;;;;;;7369646;19;20019;-65
2023/07/21 02:56:30;;;;;;;7.45;6.35;;;12.80;99.90;;;;;;7370534;19;20046;-59
2023/07/21 02:59:08;;;;;;;7.78;6.18;;;12.70;99.90;;;;;;7369726;19;20365;-58
2023/07/21 03:01:35;;;;;;;8.00;5.95;;;12.70;99.90;;;;;;7368843;19;20031;-66
2023/07/21 03:04:03;;;;;;;8.48;6.20;;;12.70;99.90;;;;;;7368365;19;20596;-58
2023/07/21 03:06:33;;;;;;;6.32;5.72;;;12.70;99.90;;;;;;7371277;19;20142;-58
2023/07/21 03:09:00;;;;;;;9.80;7.72;;;12.70;99.90;;;;;;7367511;19;20477;-57
2023/07/21 03:11:32;;;;;;;9.13;6.97;;;12.70;99.90;;;;;;7371435;19;20482;-58
2023/07/21 03:14:11;;;;;;;9.82;7.40;;;12.60;99.90;;;;;;7371269;19;20324;-58
2023/07/21 03:16:38;;;;;;;9.70;6.85;;;12.60;99.90;;;;;;7367761;19;20140;-58
2023/07/21 03:19:07;;;;;;;9.23;6.80;;;12.60;99.90;;;;;;7372164;19;20406;-59
2023/07/21 03:21:33;;;;;;;8.45;6.63;;;12.60;99.90;;;;;;7371664;19;20425;-58
2023/07/21 03:24:00;;;;;;;7.70;6.60;;;12.50;99.90;;;;;;7367652;19;20026;-59
2023/07/21 03:26:28;;;;;;;7.95;6.78;;;12.50;99.90;;;;;;7369191;19;20604;-58
2023/07/21 03:28:55;;;;;;;8.05;6.75;;;12.40;99.90;;;;;;7366559;19;20023;-59
2023/07/21 03:31:25;;;;;;;7.18;6.07;;;12.40;99.90;;;;;;7368470;19;20432;-58
2023/07/21 03:34:02;;;;;;;7.85;6.53;;;12.30;99.90;;;;;;7370277;19;20014;-59
2023/07/21 03:36:31;;;;;;;7.07;6.15;;;12.30;99.90;;;;;;7369132;19;20014;-59
2023/07/21 03:38:58;;;;;;;7.05;6.20;;;12.40;99.90;;;;;;7371106;19;20121;-59
2023/07/21 03:41:25;;;;;;;7.57;5.60;;;12.40;99.90;;;;;;7368941;19;20022;-66
2023/07/21 03:43:52;;;;;;;7.55;6.53;;;12.30;99.90;;;;;;7373551;19;20019;-66
2023/07/21 03:46:19;;;;;;;10.02;6.65;;;12.40;99.90;;;;;;7372169;19;20014;-66
2023/07/21 03:49:11;;;;;;;10.57;7.47;;;12.50;99.90;;;;;;7369867;19;20050;-66
2023/07/21 03:51:40;;;;;;;7.10;6.40;;;12.40;99.90;;;;;;7368580;19;20042;-66
2023/07/21 03:54:09;;;;;;;9.65;7.68;;;12.40;99.90;;;;;;7370706;19;20028;-66
2023/07/21 03:56:36;;;;;;;10.13;7.68;;;12.40;99.90;;;;;;7370640;19;20375;-59
2023/07/21 03:59:03;;;;;;;9.38;7.78;;;12.40;99.90;;;;;;7369702;19;20042;-58
2023/07/21 04:01:32;;;;;;;8.52;7.63;;;12.50;99.90;;;;;;7370067;19;20424;-59
2023/07/21 04:03:58;;;;;;;10.57;7.75;;;12.50;99.90;;;;;;7369135;19;20418;-58
2023/07/21 04:06:25;;;;;;;12.60;8.10;;;12.60;99.90;;;;;;7369296;19;20540;-59
2023/07/21 04:08:53;;;;;;;9.75;7.72;;;12.70;99.90;;;;;;7371484;19;20051;-59
2023/07/21 04:11:21;;;;;;;8.73;7.80;;;12.70;99.90;;;;;;7368173;19;20018;-59
2023/07/21 04:13:47;;;;;;;8.45;6.80;;;12.70;99.90;;;;;;7368691;19;20019;-59
2023/07/21 04:16:13;;;;;;;10.18;8.43;;;12.70;99.90;;;;;;7367738;19;20021;-59
2023/07/21 04:18:39;;;;;;;8.25;7.30;;;12.70;99.90;;;;;;7369007;19;20023;-58
2023/07/21 04:21:07;;;;;;;9.35;7.40;;;12.80;99.90;;;;;;7367721;19;20021;-59
2023/07/21 04:23:34;;;;;;;8.82;7.03;;;12.90;99.90;;;;;;7371672;19;20018;-59
2023/07/21 04:26:03;;;;;;;9.40;7.68;;;12.90;99.90;;;;;;7364040;19;20497;-59
2023/07/21 04:28:33;;;;;;;8.95;6.60;;;12.90;99.90;;;;;;7367287;19;20022;-60
2023/07/21 04:31:00;;;;;;;9.57;7.22;;;13.00;99.90;;;;;;7367343;19;20479;-59
2023/07/21 04:33:28;;;;;;;11.77;7.30;;;13.10;99.90;;;;;;7369058;19;20022;-66
2023/07/21 04:35:57;;;;;;;10.68;7.45;;;13.10;99.90;;;;;;7365543;19;20490;-66
2023/07/21 04:38:27;;;;;;;9.63;7.15;;;13.10;99.90;;;;;;7365233;19;20050;-66
2023/07/21 04:41:02;;;;;;;8.27;7.25;;;13.20;99.90;;;;;;7371405;19;20015;-66
2023/07/21 04:43:32;;;;;;;9.63;7.43;;;13.20;99.90;;;;;;7371901;19;20018;-66
2023/07/21 04:45:58;;;;;;;12.20;7.03;;;13.30;99.90;;;;;;7367492;19;20021;-66
2023/07/21 04:48:33;;;;;;;10.07;6.53;;;13.40;99.90;;;;;;7366500;19;20055;-65
2023/07/21 04:50:59;;;;;;;7.53;6.50;;;13.50;99.90;;;;;;7372782;19;20026;-65
2023/07/21 04:53:26;;;;;;;7.55;6.75;;;13.60;99.90;;;;;;7369691;19;20065;-66
2023/07/21 04:55:58;;;;;;;10.10;6.90;;;13.70;99.90;;;;;;7367501;19;20493;-66
2023/07/21 04:58:25;;;;;;;8.80;6.57;;;13.80;99.90;;;;;;7369365;19;20504;-66
2023/07/21 05:00:54;;;;;;;8.63;6.10;;;13.90;99.90;;;;;;7370529;19;20019;-66
2023/07/21 05:03:20;;;;;;;8.20;5.93;;;13.90;99.90;;;;;;7367208;19;20082;-66
2023/07/21 05:05:48;;;;;;;9.27;5.80;;;13.90;99.90;;;;;;7368149;19;20614;-66
2023/07/21 05:08:14;;;;;;;8.02;6.18;;;14.00;99.90;;;;;;7366896;19;20089;-66
2023/07/21 05:10:41;;;;;;;7.95;5.82;;;14.10;99.90;;;;;;7371058;19;20547;-66
2023/07/21 05:13:14;;;;;;;7.60;5.85;;;14.20;99.90;;;;;;7370199;19;20525;-65
2023/07/21 05:15:46;;;;;;;7.90;6.15;;;14.30;99.90;;;;;;7369252;19;20022;-65
2023/07/21 05:18:41;;;;;;;6.82;5.00;;;14.50;99.90;;;;;;7363471;19;20039;-65
2023/07/21 05:21:37;;;;;;;4.78;4.25;;;14.80;99.90;;;;;;7367469;19;20033;-65
2023/07/21 05:24:23;;;;;;;6.60;3.78;;;15.00;99.90;;;;;;7368183;19;20022;-65
2023/07/21 05:26:50;;;;;;;7.60;3.78;;;15.30;99.90;;;;;;7372877;19;20022;-66
2023/07/21 05:29:33;;;;;;;4.47;3.17;;;15.50;99.90;;;;;;7374452;19;20019;-58
2023/07/21 05:32:03;;;;;;;6.00;3.53;;;15.60;99.90;;;;;;7373083;19;20047;-58
2023/07/21 05:34:33;;;;;;;6.18;2.90;;;15.70;99.90;;;;;;7374090;19;20464;-58
2023/07/21 05:37:01;;;;;;;5.03;2.97;;;15.90;99.90;;;;;;7372069;19;20036;-65
2023/07/21 05:39:31;;;;;;;6.57;2.67;;;16.00;99.90;;;;;;7370523;19;20089;-65
2023/07/21 05:42:03;;;;;;;5.20;3.00;;;16.10;99.90;;;;;;7368355;19;20018;-64
2023/07/21 05:44:33;;;;;;;7.07;2.70;;;16.40;99.90;;;;;;7377186;19;20015;-64
2023/07/21 05:47:03;;;;;;;7.22;2.47;;;16.50;99.90;;;;;;7374368;19;20039;-64
2023/07/21 05:49:33;;;;;;;5.03;2.30;;;16.60;99.90;;;;;;7372237;19;20041;-64
2023/07/21 05:52:00;;;;;;;6.53;2.40;;;16.70;99.90;;;;;;7373005;19;20022;-64
2023/07/21 05:54:41;;;;;;;6.32;2.60;;;16.90;99.90;;;;;;7370544;19;20022;-64
2023/07/21 05:57:07;;;;;;;4.15;2.30;;;17.20;99.90;;;;;;7373441;19;20114;-64
2023/07/21 05:59:37;;;;;;;7.53;5.70;;;17.40;99.90;;;;;;7372796;19;20027;-63
2023/07/21 06:02:04;;;;;;;121.85;109.43;;;17.70;99.90;;;;;;7372862;19;20022;-63
2023/07/21 06:04:36;;;;;;;16.08;11.35;;;17.90;99.90;;;;;;7366697;19;20908;-62
2023/07/21 06:07:17;;;;;;;6.82;5.45;;;17.90;99.90;;;;;;7372614;19;20097;-62
2023/07/21 06:10:13;;;;;;;9.77;6.05;;;18.10;99.90;;;;;;7372448;19;20056;-62
2023/07/21 06:12:55;;;;;;;7.10;4.00;;;18.50;99.90;;;;;;7375142;19;20576;-62
2023/07/21 06:15:34;;;;;;;7.50;2.92;;;18.80;99.90;;;;;;7373897;19;20018;-62
2023/07/21 06:18:13;;;;;;;11.43;9.35;;;19.00;99.90;;;;;;7376523;19;20025;-63
2023/07/21 06:20:40;;;;;;;59.55;53.28;;;19.10;99.90;;;;;;7375338;19;20018;-63
2023/07/21 06:23:06;;;;;;;11.98;9.32;;;19.30;99.90;;;;;;7374355;19;20474;-62
2023/07/21 06:25:35;;;;;;;10.75;8.45;;;19.40;99.90;;;;;;7371898;19;20082;-62
2023/07/21 06:28:07;;;;;;;4.18;1.33;;;19.90;99.90;;;;;;7371224;19;20011;-62
2023/07/21 06:30:33;;;;;;;8.88;5.95;;;19.90;99.90;;;;;;7370743;19;20516;-62
2023/07/21 06:33:00;;;;;;;2.70;1.48;;;20.10;99.90;;;;;;7371280;19;20643;-62
2023/07/21 06:35:35;;;;;;;7.15;5.45;;;20.40;99.90;;;;;;7368806;19;20029;-62
2023/07/21 06:38:20;;;;;;;2.28;1.33;;;20.50;99.90;;;;;;7364312;19;20031;-62
2023/07/21 06:40:59;;;;;;;5.55;1.52;;;20.30;99.90;;;;;;7369062;19;20022;-63
2023/07/21 06:43:34;;;;;;;2.97;1.33;;;20.50;99.90;;;;;;7371848;19;20641;-65
2023/07/21 06:46:12;;;;;;;96.82;87.88;;;20.50;99.90;;;;;;7374826;19;20347;-61
2023/07/21 06:48:59;;;;;;;7.68;4.97;;;20.60;99.90;;;;;;7373633;19;20414;-65
2023/07/21 06:51:33;;;;;;;8.05;5.63;;;20.70;99.90;;;;;;7368838;19;20019;-68
2023/07/21 06:54:03;;;;;;;16.17;12.75;;;20.80;99.90;;;;;;7373773;19;20041;-64
2023/07/21 06:56:33;;;;;;;5.45;3.08;;;20.90;99.90;;;;;;7368033;19;20030;-62
2023/07/21 06:59:00;;;;;;;8.57;7.10;;;21.00;99.90;;;;;;7368931;19;20458;-62
2023/07/21 07:01:26;;;;;;;4.28;2.97;;;21.10;99.90;;;;;;7370453;19;20473;-62
2023/07/21 07:03:54;;;;;;;3.38;1.38;;;21.20;99.90;;;;;;7377046;19;20019;-62
2023/07/21 07:06:20;;;;;;;8.30;6.13;;;21.20;99.90;;;;;;7369443;19;20049;-64
2023/07/21 07:08:47;;;;;;;6.03;1.92;;;21.10;99.90;;;;;;7367111;19;20035;-64
2023/07/21 07:11:14;;;;;;;17.50;15.80;;;21.30;99.90;;;;;;7368445;19;20023;-60
2023/07/21 07:13:44;;;;;;;8.13;6.63;;;21.20;99.90;;;;;;7372062;19;20433;-62
2023/07/21 07:16:11;;;;;;;99.43;89.93;;;21.40;99.90;;;;;;7372368;19;20624;-62
2023/07/21 07:18:37;;;;;;;17.65;15.43;;;21.70;99.90;;;;;;7367340;19;20478;-62
2023/07/21 07:21:04;;;;;;;5.40;1.23;;;21.60;99.90;;;;;;7367519;19;20493;-64
2023/07/21 07:23:30;;;;;;;5.53;2.33;;;21.70;99.90;;;;;;7364895;19;20019;-65
2023/07/21 07:25:57;;;;;;;7.15;4.28;;;21.90;99.90;;;;;;7359581;19;20025;-65
2023/07/21 07:28:23;;;;;;;26.40;23.80;;;22.00;99.90;;;;;;7368252;19;20544;-66
2023/07/21 07:30:50;;;;;;;10.05;6.47;;;22.00;99.90;;;;;;7366919;19;20030;-69
2023/07/21 07:33:16;;;;;;;7.50;4.03;;;22.30;99.90;;;;;;7374776;19;20027;-66
2023/07/21 07:35:50;;;;;;;9.05;7.60;;;22.00;99.90;;;;;;7366380;19;20141;-66
2023/07/21 07:38:27;;;;;;;24.60;22.33;;;21.20;99.90;;;;;;7368620;19;20036;-66
2023/07/21 07:40:53;;;;;;;12.48;10.85;;;20.60;99.90;;;;;;7365247;19;20074;-66
2023/07/21 07:43:20;;;;;;;5.18;3.45;;;20.60;99.90;;;;;;7371809;19;20410;-66
2023/07/21 07:45:46;;;;;;;5.07;4.38;;;20.90;99.90;;;;;;7366102;19;20021;-65
2023/07/21 07:48:16;;;;;;;4.00;2.00;;;21.20;99.90;;;;;;7365828;19;20134;-66
2023/07/21 07:50:42;;;;;;;7.70;4.47;;;21.90;99.90;;;;;;7365957;19;20022;-64
2023/07/21 07:53:09;;;;;;;2.63;1.40;;;22.50;99.90;;;;;;7367221;19;20022;-65
2023/07/21 07:55:39;;;;;;;2.70;1.60;;;22.40;99.90;;;;;;7366425;19;20022;-65
2023/07/21 07:58:06;;;;;;;41.47;37.53;;;22.40;99.90;;;;;;7359135;19;20509;-64
2023/07/21 08:00:38;;;;;;;4.45;2.22;;;22.80;99.90;;;;;;7359473;19;20498;-64
2023/07/21 08:03:06;;;;;;;6.40;3.92;;;23.10;99.90;;;;;;7366652;19;20018;-64
2023/07/21 08:05:34;;;;;;;6.32;2.90;;;22.90;99.90;;;;;;7365754;19;20120;-64
2023/07/21 08:08:04;;;;;;;2.85;1.33;;;23.20;99.90;;;;;;7366777;19;20018;-64
2023/07/21 08:10:31;;;;;;;8.00;5.93;;;23.20;98.40;;;;;;7364427;19;20031;-65
2023/07/21 08:12:58;;;;;;;2.90;1.08;;;23.30;95.90;;;;;;7371374;19;20041;-65
2023/07/21 08:15:25;;;;;;;4.40;2.28;;;23.40;93.90;;;;;;7367204;19;20014;-65
2023/07/21 08:17:53;;;;;;;2.30;0.90;;;23.80;95.20;;;;;;7368358;19;20074;-67
2023/07/21 08:20:19;;;;;;;3.53;1.15;;;24.00;94.00;;;;;;7367404;19;20516;-69
2023/07/21 08:22:47;;;;;;;2.25;0.98;;;23.80;92.00;;;;;;7369694;19;20063;-63
2023/07/21 08:25:14;;;;;;;2.17;1.30;;;23.80;91.40;;;;;;7372756;19;20025;-63
2023/07/21 08:27:40;;;;;;;3.63;1.88;;;24.00;88.50;;;;;;7370728;19;20474;-62
2023/07/21 08:30:10;;;;;;;4.43;2.42;;;24.00;80.70;;;;;;7367298;19;20018;-60
2023/07/21 08:32:38;;;;;;;5.03;4.47;;;24.40;79.10;;;;;;7368521;19;20094;-63
2023/07/21 08:35:05;;;;;;;4.47;1.70;;;24.70;80.50;;;;;;7368222;19;20505;-64
2023/07/21 08:37:32;;;;;;;8.30;4.50;;;24.80;79.70;;;;;;7370418;19;20037;-64
2023/07/21 08:39:58;;;;;;;6.78;5.70;;;24.90;81.70;;;;;;7367186;19;20018;-63
2023/07/21 08:42:25;;;;;;;3.55;1.92;;;25.10;78.50;;;;;;7365934;19;20074;-63
2023/07/21 08:44:54;;;;;;;3.25;1.60;;;25.10;74.00;;;;;;7364956;19;20045;-63
2023/07/21 08:47:24;;;;;;;7.47;6.45;;;25.30;76.20;;;;;;7366603;19;20478;-63
2023/07/21 08:49:50;;;;;;;2.55;1.42;;;25.30;75.90;;;;;;7369544;19;20017;-63
2023/07/21 08:52:17;;;;;;;3.20;1.20;;;25.50;71.70;;;;;;7369053;19;20576;-63
2023/07/21 08:54:44;;;;;;;3.53;2.50;;;25.60;70.00;;;;;;7367223;19;20018;-63
2023/07/21 08:57:17;;;;;;;8.18;5.10;;;25.70;69.80;;;;;;7360659;19;20425;-63
2023/07/21 08:59:44;;;;;;;5.72;1.88;;;25.60;69.60;;;;;;7360201;19;20104;-63
2023/07/21 09:02:11;;;;;;;10.48;8.98;;;26.10;69.40;;;;;;7364715;19;20007;-64
2023/07/21 09:04:37;;;;;;;4.80;2.25;;;26.10;67.90;;;;;;7370914;19;20029;-62
2023/07/21 09:07:04;;;;;;;5.65;3.97;;;26.30;66.30;;;;;;7367679;19;20015;-63
2023/07/21 09:09:31;;;;;;;6.10;3.90;;;26.40;66.40;;;;;;7367836;19;20130;-63
2023/07/21 09:12:05;;;;;;;2.72;2.15;;;26.40;64.30;;;;;;7362912;19;20098;-63
2023/07/21 09:14:42;;;;;;;5.78;1.65;;;26.20;63.20;;;;;;7366756;19;20070;-63
2023/07/21 09:17:11;;;;;;;3.55;2.03;;;26.00;64.80;;;;;;7368844;19;20010;-63
2023/07/21 09:19:44;;;;;;;3.60;2.13;;;26.10;65.10;;;;;;7365772;19;20028;-62
2023/07/21 09:22:11;;;;;;;6.78;4.35;;;26.20;64.60;;;;;;7363335;19;20600;-63
2023/07/21 09:24:48;;;;;;;4.43;1.50;;;26.50;64.20;;;;;;7363587;19;20027;-62
2023/07/21 09:27:19;;;;;;;3.55;1.90;;;26.90;61.60;;;;;;7354009;19;20026;-63
2023/07/21 09:29:45;;;;;;;5.43;2.10;;;26.90;62.70;;;;;;7358921;19;20019;-62
2023/07/21 09:32:16;;;;;;;3.63;1.95;;;27.10;63.80;;;;;;7365573;19;20793;-62
2023/07/21 09:35:04;;;;;;;3.92;2.17;;;27.30;62.10;;;;;;7359705;19;20019;-63
2023/07/21 09:37:33;;;;;;;17.17;15.50;;;27.70;63.30;;;;;;7366634;19;20026;-63
2023/07/21 09:40:05;;;;;;;28.27;25.83;;;27.40;62.10;;;;;;7363214;19;20484;-66
2023/07/21 09:42:34;;;;;;;4.78;3.13;;;27.50;62.60;;;;;;7364841;19;20045;-66
2023/07/21 09:45:01;;;;;;;13.02;11.70;;;27.80;61.20;;;;;;7356436;19;20026;-66
2023/07/21 09:47:27;;;;;;;2.92;2.30;;;27.50;60.90;;;;;;7364596;19;20489;-67
2023/07/21 09:49:55;;;;;;;6.55;4.93;;;27.30;58.50;;;;;;7363562;19;20049;-67
2023/07/21 09:52:22;;;;;;;8.30;7.45;;;27.20;58.50;;;;;;7365871;19;20756;-66
2023/07/21 09:55:13;;;;;;;8.75;6.30;;;26.80;58.30;;;;;;7363492;19;21721;-66
2023/07/21 09:57:43;;;;;;;2.33;1.10;;;25.90;58.70;;;;;;7366349;19;20041;-63
2023/07/21 10:00:14;;;;;;;2.90;1.20;;;25.30;60.90;;;;;;7363675;19;20022;-63
2023/07/21 10:02:50;;;;;;;3.10;1.50;;;24.90;62.30;;;;;;7362352;19;20461;-63
2023/07/21 10:05:16;;;;;;;3.25;1.50;;;25.00;62.30;;;;;;7360679;19;20022;-63
2023/07/21 10:07:49;;;;;;;2.72;1.60;;;25.50;63.90;;;;;;7359624;19;20564;-63
2023/07/21 10:10:18;;;;;;;2.50;1.65;;;25.90;62.60;;;;;;7360381;19;20030;-63
2023/07/21 10:12:49;;;;;;;2.05;1.30;;;26.00;59.90;;;;;;7373760;19;20022;-63
2023/07/21 10:15:19;;;;;;;3.90;2.17;;;25.90;59.90;;;;;;7370627;19;20033;-62
2023/07/21 10:18:07;;;;;;;3.75;1.90;;;25.70;59.50;;;;;;7370844;19;20027;-62
2023/07/21 10:20:49;;;;;;;4.18;1.33;;;25.40;59.00;;;;;;7372698;19;20018;-66
2023/07/21 10:23:25;;;;;;;3.85;1.92;;;25.40;61.00;;;;;;7367928;19;20036;-66
2023/07/21 10:25:51;;;;;;;4.00;1.75;;;25.10;61.60;;;;;;7373612;19;20402;-67
2023/07/21 10:28:30;;;;;;;4.15;1.83;;;25.00;61.10;;;;;;7369398;19;20022;-67
2023/07/21 10:31:24;;;;;;;3.08;1.48;;;24.80;62.10;;;;;;7369675;19;20035;-66
2023/07/21 10:34:06;;;;;;;4.57;2.00;;;25.30;64.70;;;;;;7366919;19;20021;-62
2023/07/21 10:36:51;;;;;;;23.15;20.75;;;25.70;62.00;;;;;;7367932;19;20018;-65
2023/07/21 10:39:23;;;;;;;4.00;2.78;;;25.60;59.60;;;;;;7375242;19;20026;-65
2023/07/21 10:41:54;;;;;;;16.65;14.95;;;25.60;61.00;;;;;;7371157;19;20014;-65
2023/07/21 10:44:21;;;;;;;2.17;1.23;;;25.60;59.30;;;;;;7372688;19;20032;-65
2023/07/21 10:46:49;;;;;;;12.68;11.32;;;25.30;59.90;;;;;;7372859;19;20019;-68
2023/07/21 10:49:18;;;;;;;3.72;2.08;;;25.20;60.80;;;;;;7370573;19;20388;-65
2023/07/21 10:51:46;;;;;;;5.50;4.25;;;24.80;60.70;;;;;;7370702;19;20025;-64
2023/07/21 10:54:14;;;;;;;2.42;1.30;;;24.70;61.30;;;;;;7372861;19;20029;-64
2023/07/21 10:56:49;;;;;;;2.67;1.23;;;25.10;61.70;;;;;;7368787;19;20018;-64
2023/07/21 10:59:20;;;;;;;3.78;2.13;;;25.30;62.50;;;;;;7368367;19;20029;-64
2023/07/21 11:01:51;;;;;;;3.30;2.15;;;25.60;61.50;;;;;;7372374;19;20017;-64
2023/07/21 11:04:20;;;;;;;5.13;2.50;;;25.50;60.30;;;;;;7376285;19;20438;-63
2023/07/21 11:06:54;;;;;;;3.03;1.60;;;25.60;60.20;;;;;;7372112;19;20450;-63
2023/07/21 11:09:23;;;;;;;2.78;1.77;;;25.70;61.60;;;;;;7369243;19;20025;-63
2023/07/21 11:11:52;;;;;;;3.10;1.65;;;25.70;60.40;;;;;;7373067;19;20492;-64
2023/07/21 11:14:26;;;;;;;2.10;1.35;;;26.50;61.60;;;;;;7369238;19;20014;-63
2023/07/21 11:17:03;;;;;;;3.13;0.95;;;26.80;59.10;;;;;;7373131;19;20026;-63
2023/07/21 11:19:34;;;;;;;3.22;1.58;;;27.00;56.30;;;;;;7373721;19;20022;-65
2023/07/21 11:22:03;;;;;;;2.00;1.08;;;26.20;57.00;;;;;;7371030;19;20019;-64
2023/07/21 11:24:31;;;;;;;2.33;1.13;;;26.10;56.30;;;;;;7370438;19;20029;-65
2023/07/21 11:27:06;;;;;;;2.67;1.27;;;25.70;57.10;;;;;;7374618;19;20098;-65
2023/07/21 11:29:35;;;;;;;3.65;1.27;;;25.50;57.40;;;;;;7368634;19;20373;-65
2023/07/21 11:32:16;;;;;;;2.78;1.17;;;25.80;57.70;;;;;;7369304;19;20022;-65
2023/07/21 11:34:42;;;;;;;2.60;1.30;;;26.70;57.90;;;;;;7372751;19;20034;-65
2023/07/21 11:37:09;;;;;;;1.70;1.02;;;27.10;57.50;;;;;;7371705;19;20026;-65
2023/07/21 11:39:35;;;;;;;1.67;1.08;;;27.60;55.90;;;;;;7373703;19;20026;-66
2023/07/21 11:42:01;;;;;;;7.65;6.90;;;27.40;54.70;;;;;;7368140;19;20022;-66
2023/07/21 11:44:37;;;;;;;2.10;1.25;;;27.40;55.00;;;;;;7370431;19;20115;-66
2023/07/21 11:47:12;;;;;;;3.08;2.38;;;27.40;55.40;;;;;;7371083;19;20018;-65
2023/07/21 11:49:44;;;;;;;3.47;1.98;;;27.40;53.70;;;;;;7369716;19;20452;-66
2023/07/21 11:52:22;;;;;;;4.18;2.95;;;27.40;53.10;;;;;;7367660;19;20038;-65
2023/07/21 11:54:48;;;;;;;2.78;1.10;;;26.90;51.50;;;;;;7367946;19;20086;-65
2023/07/21 11:57:14;;;;;;;3.13;1.48;;;26.70;51.90;;;;;;7375674;19;20479;-65
2023/07/21 11:59:41;;;;;;;5.03;2.88;;;26.80;51.50;;;;;;7373599;19;20544;-65
2023/07/21 12:02:08;;;;;;;4.13;1.77;;;26.90;51.10;;;;;;7368703;19;20014;-66
2023/07/21 12:04:37;;;;;;;4.13;3.50;;;26.80;51.20;;;;;;7368736;19;20055;-66
2023/07/21 12:07:04;;;;;;;3.22;1.42;;;26.80;51.60;;;;;;7367752;19;20031;-64
2023/07/21 12:09:31;;;;;;;1.20;0.82;;;26.30;51.90;;;;;;7369110;19;20090;-64
2023/07/21 12:11:57;;;;;;;1.92;1.02;;;26.00;51.90;;;;;;7371743;19;20489;-62
2023/07/21 12:14:24;;;;;;;6.07;5.13;;;26.20;52.60;;;;;;7373645;19;20038;-60
2023/07/21 12:16:55;;;;;;;9.70;8.27;;;26.90;52.10;;;;;;7365231;19;20022;-62
2023/07/21 12:19:24;;;;;;;;;;;27.80;53.40;;;;;;7354442;19;20349;-65
2023/07/21 12:21:53;;;;;;;3.97;3.53;;;27.60;49.60;;;;;;7367445;19;19941;-62
2023/07/21 12:24:23;;;;;;;3.17;1.30;;;27.30;50.70;;;;;;7368377;19;20148;-65
2023/07/21 12:26:49;;;;;;;5.07;3.75;;;26.60;51.00;;;;;;7357535;19;20018;-65
2023/07/21 12:29:16;;;;;;;5.28;4.75;;;26.70;51.20;;;;;;7366867;19;20018;-66
2023/07/21 12:31:42;;;;;;;9.52;8.60;;;26.70;51.40;;;;;;7367800;19;20018;-65
2023/07/21 12:34:09;;;;;;;3.10;2.55;;;26.60;52.10;;;;;;7369527;19;20015;-66
2023/07/21 12:36:35;;;;;;;1.42;0.90;;;26.30;50.80;;;;;;7359150;19;21068;-66
2023/07/21 12:39:04;;;;;;;5.03;4.50;;;25.60;52.20;;;;;;7358534;19;20029;-65
2023/07/21 12:41:30;;;;;;;2.95;1.98;;;25.60;52.30;;;;;;7357277;19;20389;-62
2023/07/21 12:43:57;;;;;;;8.88;7.55;;;25.30;52.50;;;;;;7362796;19;20119;-63
2023/07/21 12:46:32;;;;;;;8.93;8.02;;;25.10;52.20;;;;;;7365995;19;20576;-64
2023/07/21 12:49:11;;;;;;;3.90;2.58;;;24.80;53.40;;;;;;7358029;19;20022;-63
2023/07/21 12:51:43;;;;;;;5.28;3.75;;;24.60;54.30;;;;;;7357961;19;20078;-64
2023/07/21 12:54:10;;;;;;;3.75;3.17;;;24.50;54.20;;;;;;7363732;19;20077;-63
2023/07/21 12:56:36;;;;;;;3.67;2.08;;;24.60;55.10;;;;;;7365498;19;20078;-64
2023/07/21 12:59:02;;;;;;;3.30;1.42;;;24.40;54.60;;;;;;7368537;19;20197;-61